Flight Track Log - Related Links

Times and Time Zones

All times are in EDT time to prevent confusion due to time zone crossing. See the N770NC flight status page for this flight to view local times or setup timezone preferences in your user account.

Time Position Orientation Groundspeed Altitude Reporting Facility
EDT Latitude Longitude Course Direction KTS MPH feet Rate Location/Type
Sun 12:53:56 PM 33.6558 -84.4731 292° West 416 479 24,000  Level Atlanta Center
Sun 12:54:17 PM 33.6667 -84.5000 296° West 230 265 3,000 -14,720 Descending Atlanta TRACON
Sun 12:55:11 PM 33.6833 -84.5667 287° West 259 298 5,600 2,737 Climbing Atlanta TRACON
Sun 12:56:00 PM 33.6830 -84.8799 277° West  Level FlightAware Approximate
Sun 12:56:11 PM 33.7000 -84.6500 284° West 270 311 8,200  Level Atlanta TRACON
Sun 12:57:00 PM 33.6973 -84.9808 280° West  Level FlightAware Approximate
Sun 12:57:56 PM 33.7189 -84.8131 278° West 286 329 11,100  Level Atlanta Center
Sun 12:58:00 PM 33.7133 -85.0930 280° West  Level FlightAware Approximate
Sun 12:58:56 PM 33.7286 -84.9231 276° West 322 371 13,400  Level Atlanta Center
Sun 12:59:00 PM 33.7445 -85.2002 292° West  Level FlightAware Approximate
Sun 12:59:56 PM 33.7422 -85.0331 278° West 334 384 15,500  Level Atlanta Center
Sun 01:00:56 PM 33.7600 -85.1508 280° West 346 398 17,800 2,000 Climbing Atlanta Center
Sun 01:01:56 PM 33.7881 -85.2761 285° West 352 405 19,500 1,700 Climbing Atlanta Center
Sun 01:02:56 PM 33.8139 -85.3914 285° West 364 419 21,200 1,200 Climbing Atlanta Center
Sun 01:03:56 PM 33.8458 -85.5169 287° West 369 425 21,900 400 Climbing Atlanta Center
Sun 01:04:56 PM 33.8736 -85.6450 285° West 385 443 22,000 50 Climbing Atlanta Center
Sun 01:05:56 PM 33.9072 -85.7708 288° West 392 451 22,000  Level Atlanta Center
Sun 01:06:56 PM 33.9600 -85.8772 301° West 372 428 22,000 -2,059 Level Atlanta Center
Sun 01:09:20 PM 34.1717 -86.0669 323° Northwest 393 452 15,000 -2,912 Descending Memphis Center
Sun 01:10:20 PM 34.2578 -86.1456 323° Northwest 393 452 12,100 -1,900 Descending Memphis Center
Sun 01:11:20 PM 34.3369 -86.2094 326° Northwest 371 427 11,200 -550 Descending Memphis Center
Sun 01:12:20 PM 34.4144 -86.2736 326° Northwest 347 399 11,000 -650 Descending Memphis Center
Sun 01:13:20 PM 34.4850 -86.3333 325° Northwest 326 375 9,900 -1,400 Descending Memphis Center
Sun 01:14:20 PM 34.5536 -86.3831 329° Northwest 304 350 8,200 -1,700 Descending Memphis Center
Sun 01:15:20 PM 34.6200 -86.4406 325° Northwest 291 335 6,500 -1,650 Descending Memphis Center
Sun 01:16:20 PM 34.6819 -86.4906 326° Northwest 286 329 4,900 -1,150 Descending Memphis Center
Sun 01:17:20 PM 34.7297 -86.5467 316° Northwest 266 306 4,200 -450 Descending Memphis Center
Sun 01:18:20 PM 34.7672 -86.6131 305° West 248 285 4,000 -600 Descending Memphis Center
Sun 01:19:20 PM 34.8022 -86.6697 307° West 231 266 3,000 -1,000 Descending Memphis Center

Login

Don't have an account? Register now (free) for customized features, flight alerts, and more!